createdAt,value
2018-12-21T00:00:56.507Z,0.00
2018-12-21T00:01:56.470Z,0.00
2018-12-21T00:02:56.456Z,0.00
2018-12-21T00:03:56.447Z,0.00
2018-12-21T00:04:56.439Z,0.00
2018-12-21T00:05:56.426Z,0.00
2018-12-21T00:06:56.425Z,0.00
2018-12-21T00:07:56.403Z,0.00
2018-12-21T00:08:56.389Z,0.00
2018-12-21T00:09:56.383Z,0.00
2018-12-21T00:10:56.376Z,0.00
2018-12-21T00:11:56.864Z,0.00
2018-12-21T00:12:56.345Z,0.00
2018-12-21T00:13:56.337Z,0.00
2018-12-21T00:14:56.334Z,0.00
2018-12-21T00:15:56.316Z,0.00
2018-12-21T00:16:56.325Z,0.00
2018-12-21T00:17:56.536Z,0.00
2018-12-21T00:18:57.320Z,0.00
2018-12-21T00:19:56.305Z,0.00
2018-12-21T00:20:56.261Z,0.00
2018-12-21T00:21:56.264Z,0.00
2018-12-21T00:22:56.235Z,0.00
2018-12-21T00:23:56.224Z,0.00
2018-12-21T00:24:56.211Z,0.00
2018-12-21T00:25:56.214Z,0.00
2018-12-21T00:26:56.201Z,0.00
2018-12-21T00:27:56.181Z,0.00
2018-12-21T00:28:56.169Z,0.00
2018-12-21T00:29:56.155Z,0.00
2018-12-21T00:30:56.145Z,0.00
2018-12-21T00:31:56.151Z,0.00
2018-12-21T00:32:56.128Z,0.00
2018-12-21T00:33:56.117Z,0.00
2018-12-21T00:34:56.099Z,0.00
2018-12-21T00:35:56.089Z,0.00
2018-12-21T00:36:56.102Z,0.00
2018-12-21T00:37:56.066Z,0.00
2018-12-21T00:38:56.079Z,0.00
2018-12-21T00:39:56.044Z,0.00
2018-12-21T00:40:56.036Z,0.00
2018-12-21T00:41:56.038Z,0.00
2018-12-21T00:42:56.009Z,0.00
2018-12-21T00:43:56.004Z,0.00
2018-12-21T00:44:55.988Z,0.00
2018-12-21T00:45:55.981Z,0.00
2018-12-21T00:46:55.987Z,0.00
2018-12-21T00:47:56.862Z,0.00
2018-12-21T00:48:55.943Z,0.00
2018-12-21T00:49:55.985Z,0.00
2018-12-21T00:50:55.929Z,0.00
2018-12-21T00:51:55.982Z,0.00
2018-12-21T00:52:55.933Z,0.00
2018-12-21T00:53:56.003Z,0.00
2018-12-21T00:55:02.953Z,0.00
2018-12-21T00:55:55.896Z,0.00
2018-12-21T00:56:55.865Z,0.00
2018-12-21T00:57:55.866Z,0.00
2018-12-21T00:58:55.856Z,0.00
2018-12-21T00:59:55.836Z,0.00
2018-12-21T01:00:56.411Z,0.00
2018-12-21T01:01:55.832Z,0.00
2018-12-21T01:02:56.852Z,0.00
2018-12-21T01:03:55.825Z,0.00
2018-12-21T01:04:55.791Z,0.00
2018-12-21T01:05:55.781Z,0.00
2018-12-21T01:06:55.759Z,0.00
2018-12-21T01:07:55.757Z,0.00
2018-12-21T01:08:55.793Z,0.00
2018-12-21T01:09:55.730Z,0.00
2018-12-21T01:10:55.720Z,0.00
2018-12-21T01:11:56.370Z,0.00
2018-12-21T01:12:56.349Z,0.00
2018-12-21T01:13:55.698Z,0.00
2018-12-21T01:14:55.666Z,0.00
2018-12-21T01:15:55.684Z,0.00
2018-12-21T01:16:55.661Z,0.00
2018-12-21T01:17:56.408Z,0.00
2018-12-21T01:18:55.643Z,0.00
2018-12-21T01:19:55.653Z,0.00
2018-12-21T01:20:55.609Z,0.00
2018-12-21T01:21:55.591Z,0.00
2018-12-21T01:22:55.604Z,0.00
2018-12-21T01:23:55.571Z,0.00
2018-12-21T01:24:55.583Z,0.00
2018-12-21T01:25:55.556Z,0.00
2018-12-21T01:26:55.542Z,0.00
2018-12-21T01:27:55.565Z,0.00
2018-12-21T01:28:55.515Z,0.00
2018-12-21T01:29:55.532Z,0.00
2018-12-21T01:30:55.496Z,0.00
2018-12-21T01:31:55.512Z,0.00
2018-12-21T01:32:56.357Z,0.00
2018-12-21T01:33:55.501Z,0.00
2018-12-21T01:34:55.454Z,0.00
2018-12-21T01:35:55.454Z,0.00
2018-12-21T01:36:55.478Z,0.00
2018-12-21T01:37:55.486Z,0.00
2018-12-21T01:38:55.406Z,0.00
2018-12-21T01:39:55.388Z,0.00
2018-12-21T01:40:55.394Z,0.00
2018-12-21T01:41:55.393Z,0.00
2018-12-21T01:42:55.417Z,0.00
2018-12-21T01:43:55.372Z,0.00
2018-12-21T01:44:55.873Z,0.00
2018-12-21T01:45:55.350Z,0.00
2018-12-21T01:46:55.322Z,0.00
2018-12-21T01:47:55.398Z,0.00
2018-12-21T01:48:55.854Z,0.00
2018-12-21T01:49:55.301Z,0.00
2018-12-21T01:50:55.263Z,0.00
2018-12-21T01:51:55.264Z,0.00
2018-12-21T01:52:55.269Z,0.00
2018-12-21T01:53:55.280Z,0.00
2018-12-21T01:54:55.233Z,0.00
2018-12-21T01:55:55.245Z,0.00
2018-12-21T01:56:55.862Z,0.00
2018-12-21T01:57:55.225Z,0.00
2018-12-21T01:58:55.231Z,0.00
2018-12-21T01:59:55.179Z,0.00
2018-12-21T02:00:55.184Z,0.00
2018-12-21T02:01:55.170Z,0.00
2018-12-21T02:02:55.135Z,0.00
2018-12-21T02:03:55.190Z,0.00
2018-12-21T02:04:55.161Z,0.00
2018-12-21T02:05:55.101Z,0.00
2018-12-21T02:06:55.128Z,0.00
2018-12-21T02:07:55.880Z,0.00
2018-12-21T02:08:55.097Z,0.00
2018-12-21T02:09:55.107Z,0.00
2018-12-21T02:10:55.068Z,0.00
2018-12-21T02:11:55.135Z,0.00
2018-12-21T02:12:55.058Z,0.00
2018-12-21T02:13:55.056Z,0.00
2018-12-21T02:14:55.007Z,0.00
2018-12-21T02:15:55.066Z,0.00
2018-12-21T02:16:55.006Z,0.00
2018-12-21T02:17:54.994Z,0.00
2018-12-21T02:18:55.025Z,0.00
2018-12-21T02:19:54.999Z,0.00
2018-12-21T02:20:55.862Z,0.00
2018-12-21T02:21:56.006Z,0.00
2018-12-21T02:22:54.928Z,0.00
2018-12-21T02:23:54.954Z,0.00
2018-12-21T02:24:54.927Z,0.00
2018-12-21T02:25:54.904Z,0.00
2018-12-21T02:26:55.361Z,0.00
2018-12-21T02:27:54.887Z,0.00
2018-12-21T02:28:54.913Z,0.00
2018-12-21T02:29:54.873Z,0.00
2018-12-21T02:30:54.842Z,0.00
2018-12-21T02:31:54.842Z,0.00
2018-12-21T02:32:54.832Z,0.00
2018-12-21T02:33:54.806Z,0.00
2018-12-21T02:34:54.828Z,0.00
2018-12-21T02:35:54.793Z,0.00
2018-12-21T02:36:54.806Z,0.00
2018-12-21T02:37:54.792Z,0.00
2018-12-21T02:38:54.769Z,0.00
2018-12-21T02:39:54.739Z,0.00
2018-12-21T02:40:54.711Z,0.00
2018-12-21T02:41:54.705Z,0.00
2018-12-21T02:42:55.366Z,0.00
2018-12-21T02:43:54.736Z,0.00
2018-12-21T02:44:54.686Z,0.00
2018-12-21T02:45:54.714Z,0.00
2018-12-21T02:46:54.701Z,0.00
2018-12-21T02:47:54.691Z,0.00
2018-12-21T02:48:54.620Z,0.00
2018-12-21T02:49:54.634Z,0.00
2018-12-21T02:50:54.619Z,0.00
2018-12-21T02:51:55.362Z,0.00
2018-12-21T02:52:54.613Z,0.00
2018-12-21T02:53:54.582Z,0.00
2018-12-21T02:54:54.608Z,0.00
2018-12-21T02:55:54.565Z,0.00
2018-12-21T02:56:54.585Z,0.00
2018-12-21T02:57:54.542Z,0.00
2018-12-21T02:58:54.550Z,0.00
2018-12-21T02:59:55.424Z,0.00
2018-12-21T03:00:54.488Z,0.00
2018-12-21T03:01:54.572Z,0.00
2018-12-21T03:02:54.471Z,0.00
2018-12-21T03:03:54.451Z,0.00
2018-12-21T03:04:54.455Z,0.00
2018-12-21T03:05:54.499Z,0.00
2018-12-21T03:06:54.414Z,0.00
2018-12-21T03:07:54.395Z,0.00
2018-12-21T03:08:54.401Z,0.00
2018-12-21T03:09:54.393Z,0.00
2018-12-21T03:10:54.368Z,0.00
2018-12-21T03:11:54.362Z,0.00
2018-12-21T03:12:54.341Z,0.00
2018-12-21T03:13:54.343Z,0.00
2018-12-21T03:14:54.332Z,0.00
2018-12-21T03:15:54.333Z,0.00
2018-12-21T03:16:54.298Z,0.00
2018-12-21T03:17:54.290Z,0.00
2018-12-21T03:18:54.279Z,0.00
2018-12-21T03:19:54.290Z,0.00
2018-12-21T03:20:54.260Z,0.00
2018-12-21T03:21:54.243Z,0.00
2018-12-21T03:22:54.246Z,0.00
2018-12-21T03:23:54.227Z,0.00
2018-12-21T03:24:54.222Z,0.00
2018-12-21T03:25:54.206Z,0.00
2018-12-21T03:26:54.187Z,0.00
2018-12-21T03:27:54.177Z,0.00
2018-12-21T03:28:54.159Z,0.00
2018-12-21T03:29:54.191Z,0.00
2018-12-21T03:30:54.141Z,0.00
2018-12-21T03:31:54.180Z,0.00
2018-12-21T03:32:54.122Z,0.00
2018-12-21T03:33:54.119Z,0.00
2018-12-21T03:34:54.123Z,0.00
2018-12-21T03:35:54.087Z,0.00
2018-12-21T03:36:54.076Z,0.00
2018-12-21T03:37:54.067Z,0.00
2018-12-21T03:38:54.057Z,0.00
2018-12-21T03:39:54.056Z,0.00
2018-12-21T03:40:54.065Z,0.00
2018-12-21T03:41:54.018Z,0.00
2018-12-21T03:42:54.015Z,0.00
2018-12-21T03:43:53.995Z,0.00
2018-12-21T03:44:53.994Z,0.00
2018-12-21T03:45:53.991Z,0.00
2018-12-21T03:46:53.966Z,0.00
2018-12-21T03:47:53.954Z,0.00
2018-12-21T03:48:53.942Z,0.00
2018-12-21T03:49:53.934Z,0.00
2018-12-21T03:50:53.935Z,0.00
2018-12-21T03:51:53.908Z,0.00
2018-12-21T03:52:53.893Z,0.00
2018-12-21T03:53:53.881Z,0.00
2018-12-21T03:54:53.873Z,0.00
2018-12-21T03:55:53.884Z,0.00
2018-12-21T03:56:53.854Z,0.00
2018-12-21T03:57:53.850Z,0.00
2018-12-21T03:58:53.828Z,0.00
2018-12-21T03:59:53.821Z,0.00
2018-12-21T04:00:53.821Z,0.00
2018-12-21T04:01:53.801Z,0.00
2018-12-21T04:02:53.793Z,0.00
2018-12-21T04:03:53.779Z,0.00
2018-12-21T04:04:53.766Z,0.00
2018-12-21T04:05:53.885Z,0.00
2018-12-21T04:06:53.767Z,0.00
2018-12-21T04:07:53.731Z,0.00
2018-12-21T04:08:53.735Z,0.00
2018-12-21T04:09:53.705Z,0.00
2018-12-21T04:10:53.762Z,0.00
2018-12-21T04:11:53.683Z,0.00
2018-12-21T04:12:53.689Z,0.00
2018-12-21T04:13:53.673Z,0.00
2018-12-21T04:14:53.655Z,0.00
2018-12-21T04:15:53.638Z,0.00
2018-12-21T04:16:53.701Z,0.00
2018-12-21T04:17:53.621Z,0.00
2018-12-21T04:18:53.603Z,0.00
2018-12-21T04:19:53.600Z,0.00
2018-12-21T04:20:53.587Z,0.00
2018-12-21T04:21:53.597Z,0.00
2018-12-21T04:22:53.563Z,0.00
2018-12-21T04:23:53.567Z,0.00
2018-12-21T04:24:53.541Z,0.00
2018-12-21T04:25:53.533Z,0.00
2018-12-21T04:26:53.526Z,0.00
2018-12-21T04:27:53.504Z,0.00
2018-12-21T04:28:53.493Z,0.00
2018-12-21T04:29:53.487Z,0.00
2018-12-21T04:30:53.475Z,0.00
2018-12-21T04:31:53.469Z,0.00
2018-12-21T04:32:53.446Z,0.00
2018-12-21T04:33:53.430Z,0.00
2018-12-21T04:34:53.421Z,0.00
2018-12-21T04:35:53.406Z,0.00
2018-12-21T04:36:53.432Z,0.00
2018-12-21T04:37:53.387Z,0.00
2018-12-21T04:38:53.377Z,0.00
2018-12-21T04:39:53.363Z,0.00
2018-12-21T04:40:53.361Z,0.00
2018-12-21T04:41:53.346Z,0.00
2018-12-21T04:42:53.340Z,0.00
2018-12-21T04:43:53.320Z,0.00
2018-12-21T04:44:53.306Z,0.00
2018-12-21T04:45:53.299Z,0.00
2018-12-21T04:46:53.285Z,0.00
2018-12-21T04:47:53.287Z,0.00
2018-12-21T04:48:53.379Z,0.00
2018-12-21T04:49:53.255Z,0.00
2018-12-21T04:50:53.240Z,0.00
2018-12-21T04:51:53.228Z,0.00
2018-12-21T04:52:53.226Z,0.00
2018-12-21T04:53:53.205Z,0.00
2018-12-21T04:54:53.193Z,0.00
2018-12-21T04:55:53.187Z,0.00
2018-12-21T04:56:53.172Z,0.00
2018-12-21T04:57:53.171Z,0.00
2018-12-21T04:58:53.156Z,0.00
2018-12-21T04:59:53.144Z,0.00
2018-12-21T05:00:53.129Z,0.00
2018-12-21T05:01:53.117Z,0.00
2018-12-21T05:02:53.122Z,0.00
2018-12-21T05:03:53.095Z,0.00
2018-12-21T05:04:53.083Z,0.00
2018-12-21T05:05:53.069Z,0.00
2018-12-21T05:06:53.061Z,0.00
2018-12-21T05:07:53.060Z,0.00
2018-12-21T05:08:53.036Z,0.00
2018-12-21T05:09:53.029Z,0.00
2018-12-21T05:10:53.016Z,0.00
2018-12-21T05:11:53.006Z,0.00
2018-12-21T05:12:53.003Z,0.00
2018-12-21T05:13:52.982Z,0.00
2018-12-21T05:14:52.970Z,0.00
2018-12-21T05:15:52.968Z,0.00
2018-12-21T05:16:52.967Z,0.00
2018-12-21T05:17:52.968Z,0.00
2018-12-21T05:18:52.929Z,0.00
2018-12-21T05:19:52.921Z,0.00
2018-12-21T05:20:52.903Z,0.00
2018-12-21T05:21:52.895Z,0.00
2018-12-21T05:22:52.886Z,0.00
2018-12-21T05:23:52.883Z,0.00
2018-12-21T05:24:52.860Z,0.00
2018-12-21T05:25:52.847Z,0.00
2018-12-21T05:26:52.851Z,0.00
2018-12-21T05:27:52.828Z,0.00
2018-12-21T05:28:52.837Z,0.00
2018-12-21T05:29:52.808Z,0.00
2018-12-21T05:30:52.797Z,0.00
2018-12-21T05:31:52.782Z,0.00
2018-12-21T05:32:52.773Z,0.00
2018-12-21T05:33:52.773Z,0.00
2018-12-21T05:34:52.748Z,0.00
2018-12-21T05:35:52.739Z,0.00
2018-12-21T05:36:52.726Z,0.00
2018-12-21T05:37:52.712Z,0.00
2018-12-21T05:38:52.722Z,0.00
2018-12-21T05:39:52.690Z,0.00
2018-12-21T05:40:52.680Z,0.00
2018-12-21T05:41:52.672Z,0.00
2018-12-21T05:42:52.656Z,0.00
2018-12-21T05:43:52.658Z,0.00
2018-12-21T05:44:52.634Z,0.00
2018-12-21T05:45:52.622Z,0.00
2018-12-21T05:46:52.615Z,0.00
2018-12-21T05:47:53.610Z,0.00
2018-12-21T05:48:52.612Z,0.00
2018-12-21T05:49:52.603Z,0.00
2018-12-21T05:50:52.571Z,0.00
2018-12-21T05:51:52.565Z,0.00
2018-12-21T05:53:00.609Z,0.00
2018-12-21T05:53:53.561Z,0.00
2018-12-21T05:54:52.604Z,0.00
2018-12-21T05:55:52.541Z,0.00
2018-12-21T05:56:52.509Z,0.00
2018-12-21T05:57:52.515Z,0.00
2018-12-21T05:58:52.500Z,0.00
2018-12-21T05:59:52.484Z,0.00
2018-12-21T06:00:52.486Z,0.00
2018-12-21T06:01:52.467Z,0.00
2018-12-21T06:02:52.443Z,0.00
2018-12-21T06:03:52.444Z,0.00
2018-12-21T06:04:52.461Z,0.00
2018-12-21T06:05:52.416Z,0.00
2018-12-21T06:06:52.438Z,0.00
2018-12-21T06:07:52.402Z,0.00
2018-12-21T06:08:52.438Z,0.00
2018-12-21T06:09:52.370Z,0.00
2018-12-21T06:10:52.365Z,0.00
2018-12-21T06:11:52.346Z,0.00
2018-12-21T06:12:52.348Z,0.00
2018-12-21T06:13:52.331Z,0.00
2018-12-21T06:14:52.322Z,0.00
2018-12-21T06:15:52.320Z,0.00
2018-12-21T06:16:52.285Z,0.00
2018-12-21T06:17:52.282Z,0.00
2018-12-21T06:18:52.269Z,0.00
2018-12-21T06:19:52.294Z,0.00
2018-12-21T06:20:52.238Z,0.00
2018-12-21T06:21:52.239Z,0.00
2018-12-21T06:22:52.222Z,0.00
2018-12-21T06:23:52.249Z,0.00
2018-12-21T06:24:52.215Z,0.00
2018-12-21T06:25:52.192Z,0.00
2018-12-21T06:26:52.178Z,0.00
2018-12-21T06:27:52.199Z,0.00
2018-12-21T06:28:52.174Z,0.00
2018-12-21T06:29:52.175Z,0.00
2018-12-21T06:30:52.163Z,0.00
2018-12-21T06:31:52.115Z,0.00
2018-12-21T06:32:52.131Z,0.00
2018-12-21T06:33:52.102Z,0.00
2018-12-21T06:34:52.136Z,0.00
2018-12-21T06:35:52.149Z,0.00
2018-12-21T06:36:52.077Z,0.00
2018-12-21T06:37:52.060Z,0.00
2018-12-21T06:38:52.069Z,0.00
2018-12-21T06:39:52.070Z,0.00
2018-12-21T06:40:52.035Z,0.00
2018-12-21T06:41:52.011Z,0.00
2018-12-21T06:42:51.991Z,0.00
2018-12-21T06:43:51.992Z,0.00
2018-12-21T06:44:51.979Z,0.00
2018-12-21T06:45:51.996Z,0.00
2018-12-21T06:46:51.949Z,0.00
2018-12-21T06:47:52.007Z,0.00
2018-12-21T06:48:52.893Z,0.00
2018-12-21T06:49:51.912Z,0.00
2018-12-21T06:50:51.911Z,0.00
2018-12-21T06:51:51.885Z,0.00
2018-12-21T06:52:51.876Z,0.00
2018-12-21T06:53:51.866Z,0.00
2018-12-21T06:54:51.861Z,0.00
2018-12-21T06:55:51.854Z,0.00
2018-12-21T06:56:51.830Z,0.00
2018-12-21T06:57:51.820Z,0.00
2018-12-21T06:58:51.808Z,0.00
2018-12-21T06:59:51.802Z,4.00
2018-12-21T07:00:51.808Z,4.00
2018-12-21T07:01:51.776Z,4.00
2018-12-21T07:02:51.775Z,4.00
2018-12-21T07:03:51.751Z,4.00
2018-12-21T07:04:51.744Z,0.00
2018-12-21T07:05:51.738Z,4.00
2018-12-21T07:06:51.719Z,4.00
2018-12-21T07:07:51.708Z,8.00
2018-12-21T07:08:51.704Z,4.00
2018-12-21T07:09:51.685Z,4.00
2018-12-21T07:10:51.687Z,4.00
2018-12-21T07:11:51.670Z,8.00
2018-12-21T07:12:51.655Z,8.00
2018-12-21T07:13:51.643Z,12.00
2018-12-21T07:14:51.626Z,8.00
2018-12-21T07:15:51.631Z,12.00
2018-12-21T07:16:51.609Z,12.00
2018-12-21T07:17:51.594Z,8.00
2018-12-21T07:18:51.583Z,12.00
2018-12-21T07:19:51.581Z,12.00
2018-12-21T07:20:51.586Z,12.00
2018-12-21T07:21:51.548Z,12.00
2018-12-21T07:22:51.540Z,12.00
2018-12-21T07:23:51.529Z,12.00
2018-12-21T07:24:51.527Z,16.00
2018-12-21T07:25:51.520Z,16.00
2018-12-21T07:26:51.493Z,20.00
2018-12-21T07:27:51.484Z,20.00
2018-12-21T07:28:51.472Z,28.00
2018-12-21T07:29:51.460Z,32.00
2018-12-21T07:30:51.467Z,44.00
2018-12-21T07:31:51.438Z,44.00
2018-12-21T07:32:51.426Z,52.00
2018-12-21T07:33:51.414Z,52.00
2018-12-21T07:34:51.413Z,56.00
2018-12-21T07:35:51.416Z,56.00
2018-12-21T07:36:51.384Z,64.00
2018-12-21T07:37:51.371Z,68.00
2018-12-21T07:38:51.361Z,68.00
2018-12-21T07:39:51.350Z,80.00
2018-12-21T07:40:51.338Z,88.00
2018-12-21T07:41:51.345Z,96.00
2018-12-21T07:42:51.326Z,92.00
2018-12-21T07:43:51.301Z,96.00
2018-12-21T07:44:51.508Z,96.00
2018-12-21T07:45:51.478Z,100.00
2018-12-21T07:46:51.284Z,100.00
2018-12-21T07:47:51.267Z,108.00
2018-12-21T07:48:51.254Z,120.00
2018-12-21T07:49:51.243Z,128.00
2018-12-21T07:50:51.226Z,128.00
2018-12-21T07:51:51.239Z,124.00
2018-12-21T07:52:53.245Z,128.00
2018-12-21T07:53:51.189Z,132.00
2018-12-21T07:54:51.179Z,132.00
2018-12-21T07:55:51.276Z,124.00
2018-12-21T07:56:51.171Z,128.00
2018-12-21T07:57:51.144Z,124.00
2018-12-21T07:58:57.097Z,120.00
2018-12-21T07:59:52.138Z,108.00
2018-12-21T08:00:51.116Z,96.00
2018-12-21T08:01:51.132Z,96.00
2018-12-21T08:02:51.103Z,96.00
2018-12-21T08:03:51.090Z,100.00
2018-12-21T08:04:51.079Z,104.00
2018-12-21T08:05:51.059Z,116.00
2018-12-21T08:06:51.085Z,124.00
2018-12-21T08:07:51.036Z,124.00
2018-12-21T08:08:51.030Z,128.00
2018-12-21T08:09:51.022Z,132.00
2018-12-21T08:10:51.022Z,140.00
2018-12-21T08:11:50.994Z,152.00
2018-12-21T08:12:50.995Z,140.00
2018-12-21T08:13:50.971Z,132.00
2018-12-21T08:14:50.958Z,132.00
2018-12-21T08:15:50.950Z,140.00
2018-12-21T08:16:50.938Z,140.00
2018-12-21T08:17:50.938Z,144.00
2018-12-21T08:18:50.913Z,140.00
2018-12-21T08:19:50.901Z,136.00
2018-12-21T08:20:50.891Z,144.00
2018-12-21T08:21:50.880Z,152.00
2018-12-21T08:22:50.877Z,168.00
2018-12-21T08:23:50.853Z,176.00
2018-12-21T08:24:50.843Z,184.00
2018-12-21T08:25:50.832Z,188.00
2018-12-21T08:26:50.817Z,192.00
2018-12-21T08:27:50.818Z,192.00
2018-12-21T08:28:50.880Z,196.00
2018-12-21T08:29:50.783Z,204.00
2018-12-21T08:30:50.771Z,216.00
2018-12-21T08:31:50.762Z,224.00
2018-12-21T08:32:50.762Z,220.00
2018-12-21T08:33:50.740Z,228.00
2018-12-21T08:34:50.733Z,232.00
2018-12-21T08:35:50.716Z,232.00
2018-12-21T08:36:50.709Z,228.00
2018-12-21T08:37:50.708Z,224.00
2018-12-21T08:38:50.695Z,216.00
2018-12-21T08:39:50.673Z,208.00
2018-12-21T08:40:50.667Z,204.00
2018-12-21T08:41:50.651Z,204.00
2018-12-21T08:42:50.651Z,208.00
2018-12-21T08:43:50.630Z,216.00
2018-12-21T08:44:50.618Z,228.00
2018-12-21T08:45:50.605Z,212.00
2018-12-21T08:46:50.596Z,192.00
2018-12-21T08:47:50.591Z,184.00
2018-12-21T08:48:50.881Z,184.00
2018-12-21T08:49:50.565Z,184.00
2018-12-21T08:50:50.550Z,184.00
2018-12-21T08:51:50.539Z,192.00
2018-12-21T08:52:50.547Z,196.00
2018-12-21T08:53:52.606Z,204.00
2018-12-21T08:54:50.504Z,204.00
2018-12-21T08:55:50.491Z,200.00
2018-12-21T08:56:50.482Z,196.00
2018-12-21T08:57:50.488Z,200.00
2018-12-21T08:58:50.459Z,196.00
2018-12-21T08:59:50.448Z,200.00
2018-12-21T09:00:50.439Z,200.00
2018-12-21T09:01:50.426Z,204.00
2018-12-21T09:02:50.427Z,204.00
2018-12-21T09:03:50.405Z,200.00
2018-12-21T09:04:50.394Z,200.00
2018-12-21T09:05:50.379Z,200.00
2018-12-21T09:06:50.374Z,200.00
2018-12-21T09:07:50.380Z,204.00
2018-12-21T09:08:50.347Z,212.00
2018-12-21T09:09:50.334Z,224.00
2018-12-21T09:10:50.347Z,240.00
2018-12-21T09:11:50.315Z,248.00
2018-12-21T09:12:50.314Z,264.00
2018-12-21T09:13:50.291Z,284.00
2018-12-21T09:14:50.282Z,304.00
2018-12-21T09:15:50.267Z,324.00
2018-12-21T09:16:50.256Z,340.00
2018-12-21T09:17:50.255Z,352.00
2018-12-21T09:18:50.230Z,352.00
2018-12-21T09:19:50.224Z,352.00
2018-12-21T09:20:50.209Z,364.00
2018-12-21T09:21:50.196Z,380.00
2018-12-21T09:22:50.202Z,400.00
2018-12-21T09:23:50.198Z,412.00
2018-12-21T09:24:50.164Z,432.00
2018-12-21T09:25:50.153Z,424.00
2018-12-21T09:26:50.144Z,416.00
2018-12-21T09:27:50.158Z,412.00
2018-12-21T09:28:50.199Z,404.00
2018-12-21T09:29:50.111Z,392.00
2018-12-21T09:30:50.096Z,396.00
2018-12-21T09:31:50.926Z,400.00
2018-12-21T09:32:50.078Z,396.00
2018-12-21T09:33:50.087Z,388.00
2018-12-21T09:34:50.060Z,376.00
2018-12-21T09:35:50.062Z,364.00
2018-12-21T09:36:50.038Z,360.00
2018-12-21T09:37:50.056Z,364.00
2018-12-21T09:38:50.027Z,368.00
2018-12-21T09:39:50.021Z,376.00
2018-12-21T09:40:49.992Z,380.00
2018-12-21T09:41:49.986Z,380.00
2018-12-21T09:42:49.994Z,372.00
2018-12-21T09:43:50.048Z,368.00
2018-12-21T09:44:52.583Z,368.00
2018-12-21T09:45:49.943Z,364.00
2018-12-21T09:46:49.948Z,360.00
2018-12-21T09:47:49.918Z,352.00
2018-12-21T09:48:50.893Z,348.00
2018-12-21T09:49:49.916Z,348.00
2018-12-21T09:50:49.888Z,352.00
2018-12-21T09:51:49.883Z,364.00
2018-12-21T09:52:49.862Z,376.00
2018-12-21T09:53:49.878Z,400.00
2018-12-21T09:54:50.395Z,428.00
2018-12-21T09:55:49.816Z,456.00
2018-12-21T09:56:49.806Z,480.00
2018-12-21T09:57:49.830Z,512.00
2018-12-21T09:58:49.798Z,536.00
2018-12-21T09:59:49.770Z,548.00
2018-12-21T10:00:49.760Z,564.00
2018-12-21T10:01:49.746Z,580.00
2018-12-21T10:02:49.745Z,604.00
2018-12-21T10:03:49.775Z,612.00
2018-12-21T10:04:49.740Z,616.00
2018-12-21T10:05:49.716Z,616.00
2018-12-21T10:06:49.803Z,584.00
2018-12-21T10:07:49.744Z,564.00
2018-12-21T10:08:49.815Z,544.00
2018-12-21T10:09:49.702Z,528.00
2018-12-21T10:10:50.659Z,516.00
2018-12-21T10:11:49.643Z,508.00
2018-12-21T10:12:53.363Z,504.00
2018-12-21T10:13:49.646Z,492.00
2018-12-21T10:14:49.644Z,484.00
2018-12-21T10:15:49.613Z,476.00
2018-12-21T10:16:49.607Z,468.00
2018-12-21T10:17:49.566Z,464.00
2018-12-21T10:18:49.634Z,452.00
2018-12-21T10:19:49.546Z,436.00
2018-12-21T10:20:49.536Z,428.00
2018-12-21T10:21:49.524Z,420.00
2018-12-21T10:22:49.508Z,416.00
2018-12-21T10:23:49.528Z,408.00
2018-12-21T10:24:49.495Z,400.00
2018-12-21T10:25:49.475Z,396.00
2018-12-21T10:26:49.462Z,392.00
2018-12-21T10:27:49.452Z,392.00
2018-12-21T10:28:49.442Z,396.00
2018-12-21T10:29:49.440Z,388.00
2018-12-21T10:30:49.416Z,388.00
2018-12-21T10:31:49.402Z,384.00
2018-12-21T10:32:49.398Z,388.00
2018-12-21T10:33:49.387Z,392.00
2018-12-21T10:34:49.392Z,404.00
2018-12-21T10:35:49.372Z,412.00
2018-12-21T10:36:49.348Z,424.00
2018-12-21T10:37:49.339Z,436.00
2018-12-21T10:38:49.324Z,452.00
2018-12-21T10:39:49.329Z,464.00
2018-12-21T10:40:49.304Z,472.00
2018-12-21T10:41:49.292Z,464.00
2018-12-21T10:42:49.286Z,444.00
2018-12-21T10:43:49.266Z,420.00
2018-12-21T10:44:49.269Z,408.00
2018-12-21T10:45:49.247Z,404.00
2018-12-21T10:46:49.234Z,420.00
2018-12-21T10:47:49.227Z,436.00
2018-12-21T10:48:49.208Z,432.00
2018-12-21T10:49:49.209Z,424.00
2018-12-21T10:50:49.187Z,404.00
2018-12-21T10:51:49.269Z,388.00
2018-12-21T10:52:49.166Z,376.00
2018-12-21T10:53:49.154Z,380.00
2018-12-21T10:54:49.157Z,384.00
2018-12-21T10:55:49.130Z,368.00
2018-12-21T10:56:49.125Z,340.00
2018-12-21T10:57:49.107Z,320.00
2018-12-21T10:58:49.976Z,308.00
2018-12-21T10:59:49.098Z,308.00
2018-12-21T11:00:49.074Z,308.00
2018-12-21T11:01:49.064Z,304.00
2018-12-21T11:02:49.056Z,288.00
2018-12-21T11:03:49.049Z,256.00
2018-12-21T11:04:49.042Z,232.00
2018-12-21T11:05:49.015Z,220.00
2018-12-21T11:06:49.005Z,220.00
2018-12-21T11:07:48.991Z,224.00
2018-12-21T11:08:48.983Z,228.00
2018-12-21T11:09:49.006Z,244.00
2018-12-21T11:10:48.963Z,268.00
2018-12-21T11:11:48.948Z,288.00
2018-12-21T11:12:48.941Z,316.00
2018-12-21T11:13:48.924Z,340.00
2018-12-21T11:14:48.918Z,360.00
2018-12-21T11:15:48.917Z,376.00
2018-12-21T11:16:48.888Z,384.00
2018-12-21T11:17:48.883Z,392.00
2018-12-21T11:18:48.865Z,388.00
2018-12-21T11:19:48.854Z,388.00
2018-12-21T11:20:48.861Z,388.00
2018-12-21T11:21:48.835Z,384.00
2018-12-21T11:22:48.820Z,392.00
2018-12-21T11:23:48.812Z,388.00
2018-12-21T11:24:48.803Z,384.00
2018-12-21T11:25:48.800Z,380.00
2018-12-21T11:26:48.789Z,384.00
2018-12-21T11:27:48.765Z,380.00
2018-12-21T11:28:48.757Z,384.00
2018-12-21T11:29:49.674Z,384.00
2018-12-21T11:30:48.755Z,388.00
2018-12-21T11:31:48.723Z,380.00
2018-12-21T11:32:48.712Z,352.00
2018-12-21T11:33:48.696Z,320.00
2018-12-21T11:34:48.685Z,292.00
2018-12-21T11:35:48.687Z,276.00
2018-12-21T11:36:48.664Z,268.00
2018-12-21T11:37:48.655Z,256.00
2018-12-21T11:38:48.641Z,248.00
2018-12-21T11:39:48.630Z,240.00
2018-12-21T11:40:48.628Z,228.00
2018-12-21T11:41:48.606Z,220.00
2018-12-21T11:42:48.599Z,208.00
2018-12-21T11:43:48.589Z,204.00
2018-12-21T11:44:48.577Z,204.00
2018-12-21T11:45:48.573Z,204.00
2018-12-21T11:46:48.551Z,200.00
2018-12-21T11:47:48.542Z,196.00
2018-12-21T11:48:48.532Z,196.00
2018-12-21T11:49:48.517Z,196.00
2018-12-21T11:50:48.508Z,196.00
2018-12-21T11:51:48.506Z,188.00
2018-12-21T11:52:48.482Z,172.00
2018-12-21T11:53:48.473Z,168.00
2018-12-21T11:54:48.462Z,168.00
2018-12-21T11:55:48.461Z,176.00
2018-12-21T11:56:48.438Z,180.00
2018-12-21T11:57:48.428Z,180.00
2018-12-21T11:58:48.420Z,180.00
2018-12-21T11:59:48.410Z,180.00
2018-12-21T12:00:48.408Z,188.00
2018-12-21T12:01:48.399Z,196.00
2018-12-21T12:02:48.374Z,212.00
2018-12-21T12:03:48.363Z,228.00
2018-12-21T12:04:48.347Z,244.00
2018-12-21T12:05:48.340Z,256.00
2018-12-21T12:06:48.348Z,260.00
2018-12-21T12:07:48.315Z,260.00
2018-12-21T12:08:48.304Z,256.00
2018-12-21T12:09:48.940Z,244.00
2018-12-21T12:10:48.284Z,236.00
2018-12-21T12:11:48.283Z,240.00
2018-12-21T12:12:48.267Z,240.00
2018-12-21T12:13:48.250Z,244.00
2018-12-21T12:14:48.238Z,240.00
2018-12-21T12:15:48.224Z,236.00
2018-12-21T12:16:48.236Z,228.00
2018-12-21T12:17:48.203Z,232.00
2018-12-21T12:18:48.194Z,240.00
2018-12-21T12:19:48.185Z,252.00
2018-12-21T12:20:48.175Z,260.00
2018-12-21T12:21:48.169Z,260.00
2018-12-21T12:22:48.151Z,252.00
2018-12-21T12:23:48.136Z,224.00
2018-12-21T12:24:52.681Z,196.00
2018-12-21T12:25:49.120Z,180.00
2018-12-21T12:26:48.134Z,168.00
2018-12-21T12:27:48.126Z,168.00
2018-12-21T12:28:48.098Z,184.00
2018-12-21T12:29:48.076Z,208.00
2018-12-21T12:30:48.065Z,216.00
2018-12-21T12:31:48.070Z,220.00
2018-12-21T12:32:48.085Z,220.00
2018-12-21T12:33:48.035Z,216.00
2018-12-21T12:34:48.027Z,200.00
2018-12-21T12:35:48.011Z,188.00
2018-12-21T12:36:48.014Z,172.00
2018-12-21T12:37:47.993Z,152.00
2018-12-21T12:38:47.978Z,136.00
2018-12-21T12:39:47.973Z,120.00
2018-12-21T12:40:47.954Z,100.00
2018-12-21T12:41:47.964Z,88.00
2018-12-21T12:42:47.930Z,80.00
2018-12-21T12:43:47.918Z,80.00
2018-12-21T12:44:47.950Z,76.00
2018-12-21T12:45:47.898Z,72.00
2018-12-21T12:46:47.916Z,68.00
2018-12-21T12:47:47.874Z,72.00
2018-12-21T12:48:47.858Z,76.00
2018-12-21T12:49:47.850Z,80.00
2018-12-21T12:50:47.838Z,80.00
2018-12-21T12:51:47.847Z,80.00
2018-12-21T12:52:47.827Z,72.00
2018-12-21T12:53:47.803Z,68.00
2018-12-21T12:54:47.798Z,64.00
2018-12-21T12:55:47.794Z,64.00
2018-12-21T12:56:47.786Z,68.00
2018-12-21T12:57:47.781Z,68.00